Jamaica, VT

2:31 AM EDT on June 02, 2015 (GMT -0400)
Pinnacle Summit - Stratton Mountain | | Change Station
CLOSE
Current Station
Personal Weather Station
Location: Stratton Mountain, VT
Elevation: 2290 ft
Nearby Weather Stations

Elev 2290 ft 43.13 °N, 72.87 °W | Updated 8 minutes ago

Overcast
Overcast
41.0 °F
Feels Like 41 °F
N
0.0
Wind Variable Wind from SSE
Gusts 0.0 mph

Today
High -- | Low -- °F
--% Chance of Precip.
Yesterday
High -- | Low -- °F
Precip. -- in
5:14 AM 8:24 PM
Full, 100% visible
Pressure 30.25 in
Visibility 10.0 miles
Clouds Overcast 2600 ft
Windchill 41 °F
Dew Point 41 °F
Humidity 99%
Rainfall 0.01 in
Snow Depth Not available.
UV 0 out of 12
Pollen 1.00 out of 12
Air Quality Not available.
Flu Activity Sporadic
METAR KVSF 020554Z AUTO 00000KT 10SM OVC026 08/06 A3023 RMK AO2 RAE29 SLP242 P0001 60006 T00830061 10089 20078 58013 TSNO

More Conditions Fewer Conditions

Pressure 30.25 in
Visibility 10.0 miles
Clouds Overcast 2600 ft
Windchill 41 °F
Dew Point 41 °F
Humidity 99%
Rainfall 0.01 in
Snow Depth Not available.
UV 0 out of 12
Pollen 1.00 out of 12
Air Quality Not available.
Flu Activity Sporadic
METAR KVSF 020554Z AUTO 00000KT 10SM OVC026 08/06 A3023 RMK AO2 RAE29 SLP242 P0001 60006 T00830061 10089 20078 58013 TSNO

More Conditions Fewer Conditions

10-Day Weather Forecast

Almanac

Astronomy

Jun. 02, 2015 Rise Set
Actual Time
Civil Twilight
Nautical Twilight
Astronomical Twilight
Moon
Length of Visible Light
Length of Day
Tomorrow will be .
, % of the Moon is Illuminated

Today's Extremes

State Highs State Lows

Community

WunderPhotos

Upload Photos

1,825,919 photos uploaded!

WunderBlogs® & News

Nearby

Air Quality

  Air Quality AQ Index Pollutant
Not available.

Snow Depth

Station Depth Elevation

Earthquake Activity

City Distance Mag. Time & Date
Minimum magnitude displayed is 2.5.

Coastal Water Temperatures

Place Temperature

Stations

Nearby Weather Stations

Station Location Temp. Windchill Dew Point Humidity Wind Precip. Elev Updated Type